createdAt,value
2023-03-22T00:01:37.908Z,27.30
2023-03-22T00:04:32.423Z,27.40
2023-03-22T00:07:27.778Z,27.50
2023-03-22T00:10:22.721Z,27.60
2023-03-22T00:13:17.188Z,27.60
2023-03-22T00:16:12.340Z,27.60
2023-03-22T00:19:06.499Z,27.60
2023-03-22T00:22:02.374Z,27.50
2023-03-22T00:24:56.769Z,27.60
2023-03-22T00:27:50.971Z,27.70
2023-03-22T00:30:54.426Z,27.70
2023-03-22T00:33:48.567Z,27.70
2023-03-22T00:36:44.030Z,27.80
2023-03-22T00:39:38.133Z,27.90
2023-03-22T00:42:32.809Z,28.00
2023-03-22T00:45:28.120Z,28.00
2023-03-22T00:48:22.302Z,28.10
2023-03-22T00:51:17.494Z,28.20
2023-03-22T00:54:11.767Z,28.30
2023-03-22T00:57:06.101Z,28.40
2023-03-22T01:00:00.345Z,28.60
2023-03-22T01:02:54.628Z,28.70
2023-03-22T01:05:50.537Z,28.80
2023-03-22T01:08:44.759Z,28.90
2023-03-22T01:11:39.079Z,28.90
2023-03-22T01:14:33.183Z,29.00
2023-03-22T01:17:27.394Z,29.20
2023-03-22T01:20:21.600Z,29.30
2023-03-22T01:23:15.776Z,29.40
2023-03-22T01:26:10.002Z,29.60
2023-03-22T01:29:04.164Z,29.60
2023-03-22T01:31:58.261Z,29.80
2023-03-22T01:34:53.573Z,29.80
2023-03-22T01:37:47.726Z,29.90
2023-03-22T01:40:42.443Z,30.00
2023-03-22T01:43:36.828Z,30.00
2023-03-22T01:46:31.778Z,30.00
2023-03-22T01:49:32.676Z,30.20
2023-03-22T01:52:27.156Z,30.30
2023-03-22T01:55:23.920Z,30.40
2023-03-22T01:58:19.538Z,30.50
2023-03-22T02:01:14.041Z,30.60
2023-03-22T02:04:14.514Z,30.80
2023-03-22T02:07:16.547Z,30.90
2023-03-22T02:10:23.864Z,31.00
2023-03-22T02:13:30.344Z,31.10
2023-03-22T02:16:51.920Z,31.20
2023-03-22T02:20:30.641Z,31.20
2023-03-22T02:23:24.304Z,31.30
2023-03-22T02:26:42.755Z,31.40
2023-03-22T02:30:02.337Z,31.50
2023-03-22T02:33:14.431Z,31.50
2023-03-22T02:36:44.080Z,31.70
2023-03-22T02:39:50.534Z,31.80
2023-03-22T02:43:17.099Z,31.80
2023-03-22T02:46:23.625Z,31.90
2023-03-22T02:49:54.924Z,32.00
2023-03-22T02:53:19.218Z,32.10
2023-03-22T02:56:54.717Z,32.20
2023-03-22T02:59:50.242Z,32.30
2023-03-22T03:02:53.950Z,32.40
2023-03-22T03:05:54.423Z,32.50
2023-03-22T03:08:54.601Z,32.50
2023-03-22T03:11:54.768Z,32.60
2023-03-22T03:14:49.222Z,32.60
2023-03-22T03:17:58.722Z,32.70
2023-03-22T03:21:23.404Z,32.80
2023-03-22T03:24:32.859Z,32.90
2023-03-22T03:27:58.875Z,33.00
2023-03-22T03:30:58.075Z,33.00
2023-03-22T03:34:20.141Z,33.00
2023-03-22T03:37:28.287Z,33.10
2023-03-22T03:40:34.868Z,33.30
2023-03-22T03:43:29.561Z,33.30
2023-03-22T03:46:24.157Z,33.40
2023-03-22T03:49:19.660Z,33.50
2023-03-22T03:52:14.636Z,33.50
2023-03-22T03:55:09.276Z,33.50
2023-03-22T03:58:03.485Z,33.50
2023-03-22T04:00:58.039Z,33.60
2023-03-22T04:03:56.418Z,33.60
2023-03-22T04:06:50.597Z,33.70
2023-03-22T04:09:44.893Z,33.70
2023-03-22T04:12:39.695Z,33.80
2023-03-22T04:15:34.097Z,33.80
2023-03-22T04:18:30.855Z,33.80
2023-03-22T04:21:24.522Z,33.80
2023-03-22T04:24:18.616Z,33.80
2023-03-22T04:27:12.828Z,33.80
2023-03-22T04:30:12.458Z,33.80
2023-03-22T04:33:10.117Z,33.80
2023-03-22T04:36:06.846Z,33.90
2023-03-22T04:39:01.035Z,33.80
2023-03-22T04:41:55.164Z,33.80
2023-03-22T04:44:49.316Z,33.90
2023-03-22T04:47:43.540Z,33.80
2023-03-22T04:50:38.050Z,33.90
2023-03-22T04:53:32.622Z,33.90
2023-03-22T04:56:26.969Z,33.90
2023-03-22T04:59:21.801Z,33.90
2023-03-22T05:02:15.930Z,34.00
2023-03-22T05:05:10.090Z,34.00
2023-03-22T05:08:04.273Z,33.90
2023-03-22T05:11:00.157Z,33.80
2023-03-22T05:13:54.306Z,33.70
2023-03-22T05:16:48.567Z,33.70
2023-03-22T05:19:42.731Z,33.80
2023-03-22T05:22:39.225Z,33.80
2023-03-22T05:25:33.598Z,33.80
2023-03-22T05:28:29.756Z,33.80
2023-03-22T05:31:24.602Z,33.70
2023-03-22T05:34:18.764Z,33.60
2023-03-22T05:37:12.961Z,33.50
2023-03-22T05:40:11.223Z,33.40
2023-03-22T05:43:05.389Z,33.40
2023-03-22T05:45:59.475Z,33.50
2023-03-22T05:48:53.628Z,33.50
2023-03-22T05:51:48.312Z,33.40
2023-03-22T05:54:42.560Z,33.40
2023-03-22T05:57:36.698Z,33.40
2023-03-22T06:00:35.314Z,33.30
2023-03-22T06:03:29.964Z,33.30
2023-03-22T06:06:25.088Z,33.10
2023-03-22T06:09:19.195Z,33.10
2023-03-22T06:12:13.686Z,33.00
2023-03-22T06:15:09.359Z,32.90
2023-03-22T06:18:03.488Z,32.80
2023-03-22T06:20:57.972Z,32.60
2023-03-22T06:23:52.090Z,32.50
2023-03-22T06:26:46.462Z,32.50
2023-03-22T06:29:41.033Z,32.40
2023-03-22T06:32:35.193Z,32.40
2023-03-22T06:35:29.756Z,32.50
2023-03-22T06:38:23.946Z,32.40
2023-03-22T06:41:18.124Z,32.30
2023-03-22T06:44:12.196Z,32.20
2023-03-22T06:47:06.727Z,32.30
2023-03-22T06:50:00.863Z,32.40
2023-03-22T06:52:55.081Z,32.40
2023-03-22T06:55:49.216Z,32.40
2023-03-22T06:58:43.382Z,32.50
2023-03-22T07:01:37.614Z,32.40
2023-03-22T07:04:32.058Z,32.40
2023-03-22T07:07:26.254Z,32.30
2023-03-22T07:10:20.653Z,32.20
2023-03-22T07:13:14.808Z,32.20
2023-03-22T07:16:09.663Z,32.10
2023-03-22T07:19:04.630Z,32.10
2023-03-22T07:21:58.880Z,32.00
2023-03-22T07:24:57.211Z,32.00
2023-03-22T07:27:53.104Z,31.90
2023-03-22T07:30:47.241Z,31.80
2023-03-22T07:33:42.284Z,31.70
2023-03-22T07:36:36.512Z,31.70
2023-03-22T07:39:31.610Z,31.70
2023-03-22T07:42:25.786Z,31.60
2023-03-22T07:45:21.264Z,31.60
2023-03-22T07:48:15.432Z,31.50
2023-03-22T07:51:09.627Z,31.30
2023-03-22T07:54:05.915Z,31.30
2023-03-22T07:57:02.276Z,31.20
2023-03-22T07:59:57.763Z,31.00
2023-03-22T08:02:52.092Z,30.90
2023-03-22T08:05:46.383Z,30.90
2023-03-22T08:08:40.854Z,30.90
2023-03-22T08:11:34.946Z,30.90
2023-03-22T08:14:36.350Z,30.80
2023-03-22T08:17:31.576Z,30.70
2023-03-22T08:20:30.166Z,30.70
2023-03-22T08:23:38.463Z,30.70
2023-03-22T08:26:35.557Z,30.60
2023-03-22T08:29:29.926Z,30.40
2023-03-22T08:32:24.095Z,30.30
2023-03-22T08:35:18.606Z,30.20
2023-03-22T08:38:12.787Z,30.10
2023-03-22T08:41:07.031Z,30.10
2023-03-22T08:44:01.250Z,30.00
2023-03-22T08:46:55.618Z,29.90
2023-03-22T08:49:49.804Z,29.90
2023-03-22T08:52:44.104Z,29.90
2023-03-22T08:55:38.804Z,29.90
2023-03-22T08:58:33.248Z,30.00
2023-03-22T09:01:28.154Z,30.00
2023-03-22T09:04:22.377Z,29.90
2023-03-22T09:07:18.682Z,29.90
2023-03-22T09:10:13.295Z,29.80
2023-03-22T09:13:07.590Z,29.80
2023-03-22T09:16:01.776Z,29.70
2023-03-22T09:18:56.075Z,29.70
2023-03-22T09:21:51.213Z,29.60
2023-03-22T09:24:45.445Z,29.60
2023-03-22T09:27:39.607Z,29.50
2023-03-22T09:30:33.743Z,29.50
2023-03-22T09:33:27.909Z,29.50
2023-03-22T09:36:22.320Z,29.50
2023-03-22T09:39:17.430Z,29.40
2023-03-22T09:42:23.193Z,29.40
2023-03-22T09:45:31.944Z,29.40
2023-03-22T09:48:38.884Z,29.30
2023-03-22T09:51:41.463Z,29.30
2023-03-22T09:54:42.071Z,29.30
2023-03-22T09:57:38.735Z,29.30
2023-03-22T10:00:52.974Z,29.20
2023-03-22T10:03:56.446Z,29.20
2023-03-22T10:06:55.977Z,29.10
2023-03-22T10:10:07.315Z,29.10
2023-03-22T10:13:15.930Z,28.90
2023-03-22T10:16:18.000Z,28.70
2023-03-22T10:19:36.472Z,28.50
2023-03-22T10:22:35.293Z,28.30
2023-03-22T10:25:39.798Z,28.10
2023-03-22T10:28:42.960Z,28.10
2023-03-22T10:31:37.177Z,28.10
2023-03-22T10:34:34.884Z,28.20
2023-03-22T10:37:36.336Z,28.20
2023-03-22T10:40:35.829Z,28.10
2023-03-22T10:43:39.833Z,28.00
2023-03-22T10:46:39.941Z,27.90
2023-03-22T10:49:43.457Z,27.80
2023-03-22T10:52:58.022Z,27.60
2023-03-22T10:55:52.249Z,27.60
2023-03-22T10:58:46.561Z,27.60
2023-03-22T11:01:47.191Z,27.60
2023-03-22T11:04:42.792Z,27.60
2023-03-22T11:07:47.631Z,27.60
2023-03-22T11:10:51.229Z,27.50
2023-03-22T11:13:51.139Z,27.50
2023-03-22T11:17:12.131Z,27.50
2023-03-22T11:20:09.028Z,27.40
2023-03-22T11:23:07.137Z,27.40
2023-03-22T11:26:07.816Z,27.30
2023-03-22T11:29:14.387Z,27.30
2023-03-22T11:32:24.703Z,27.30
2023-03-22T11:35:29.705Z,27.30
2023-03-22T11:38:30.976Z,27.30
2023-03-22T11:41:51.348Z,27.40
2023-03-22T11:44:46.850Z,27.30
2023-03-22T11:47:41.418Z,27.20
2023-03-22T11:50:39.736Z,27.10
2023-03-22T11:53:36.994Z,27.00
2023-03-22T11:56:32.067Z,26.90
2023-03-22T11:59:39.970Z,26.80
2023-03-22T12:02:40.158Z,26.80
2023-03-22T12:05:39.121Z,26.70
2023-03-22T12:08:54.142Z,26.70
2023-03-22T12:12:11.482Z,26.60
2023-03-22T12:15:22.764Z,26.50
2023-03-22T12:18:25.104Z,26.60
2023-03-22T12:21:19.593Z,26.60
2023-03-22T12:24:31.957Z,26.60
2023-03-22T12:27:38.715Z,26.60
2023-03-22T12:30:38.805Z,26.60
2023-03-22T12:33:35.250Z,26.70
2023-03-22T12:36:49.303Z,26.60
2023-03-22T12:39:52.592Z,26.60
2023-03-22T12:43:00.266Z,26.60
2023-03-22T12:46:02.262Z,26.60
2023-03-22T12:49:22.666Z,26.50
2023-03-22T12:52:45.756Z,26.50
2023-03-22T12:55:42.795Z,26.40
2023-03-22T12:58:37.372Z,26.40
2023-03-22T13:01:34.715Z,26.40
2023-03-22T13:04:36.982Z,26.40
2023-03-22T13:07:42.214Z,26.40
2023-03-22T13:10:38.083Z,26.30
2023-03-22T13:13:41.435Z,26.30
2023-03-22T13:16:49.957Z,26.30
2023-03-22T13:20:00.477Z,26.30
2023-03-22T13:22:54.731Z,26.20
2023-03-22T13:26:05.373Z,26.20
2023-03-22T13:29:27.364Z,26.20
2023-03-22T13:32:38.744Z,26.20
2023-03-22T13:35:52.296Z,26.10
2023-03-22T13:38:59.430Z,26.10
2023-03-22T13:42:20.917Z,26.00
2023-03-22T13:45:35.065Z,26.00
2023-03-22T13:48:43.613Z,25.90
2023-03-22T13:51:38.728Z,25.80
2023-03-22T13:54:44.169Z,25.80
2023-03-22T13:57:51.437Z,25.60
2023-03-22T14:00:52.467Z,25.50
2023-03-22T14:03:51.507Z,25.50
2023-03-22T14:07:08.245Z,25.50
2023-03-22T14:10:19.880Z,25.50
2023-03-22T14:13:32.488Z,25.50
2023-03-22T14:16:38.902Z,25.50
2023-03-22T14:19:35.945Z,25.60
